Caio Rocha

Olheiro-Chefe - Parana
22 Abr 2027
Quinta-feira
Processo

Personalidade

Adaptabilidade (1) Ambição (18) Controvérsia (4) Lealdade (18) Pressão (14) Profissionalismo (18) Espírito Esportivo (6) Temperamento (2)

Perfil

Estilo de Treinamento Democrático
Licença Continental B
Determinação 11
Gestão de Pessoas 5
Motivação 11
Disciplina 4
Satisfação no Trabalho
100%
Fadiga
0%
Função Olheiro-Chefe
Salário 21.4K p/s
Contrato 14.03.2030

Desempenho

Comportamento Bom
Eficácia do Treinamento
33%
Desenvolvimento do Jogador
50%
Prevenção de Lesões
25%
Implementação Tática
40%

Eventos Recentes

Avaliou um jogador agora
Participou de uma reunião de recrutamento agora
Recomendou um alvo de transferência agora
Recomendou um alvo de transferência agora
Avaliou um jogador 7d atrás
Avaliou um jogador 7d atrás
Avaliou um jogador 7d atrás
Avaliou um jogador 7d atrás

Monitorando agora

279
Jogador Clube Status Habilidade Confiança Observado Última observação Último voto
André Clovis Leiria Ativo 125 / 126 40% 2 21.04.2027 -
Dom Ballard Leyton Orient Ativo 106 / 122 40% 2 21.04.2027 -
Kévin Zohi Torreense Ativo 121 / 107 40% 4 20.04.2027 -
Ronan Hale Gillingham Ativo 101 / 103 40% 3 20.04.2027 -
Korede Osundina Casa Pia Ativo 111 / 115 40% 4 19.04.2027 -
Vinícius Lopes Santa Clara Ativo 114 / 130 40% 4 19.04.2027 -
Manu Pozo Torreense Ativo 137 / 111 40% 2 18.04.2027 -
Martín Tejón Maritimo Ativo 115 / 124 40% 5 18.04.2027 -
Miguel Pires Vizela Ativo 121 / 120 40% 3 18.04.2027 -
Iqraam Rayners Colchester United Ativo 148 / 132 40% 2 18.04.2027 -
André Silva Tondela Ativo 122 / 119 40% 7 17.04.2027 -
Pablo Fernández Leiria Ativo 131 / 122 40% 3 17.04.2027 -
Jackson Muleka Konyaspor Ativo 147 / 116 40% 3 17.04.2027 -
Bobby Thomas Coventry City Ativo 123 / 133 40% 2 17.04.2027 -
Hugo Pérez Torreense Ativo 108 / 117 40% 2 17.04.2027 -
Cristian Ferreira Académico de Viseu Ativo 116 / 118 40% 1 17.04.2027 -
Oli McBurnie Hull City Ativo 146 / 119 40% 2 15.04.2027 -
Tiago Freitas Benfica Ativo 105 / 121 40% 2 15.04.2027 -
Max Svensson Penafiel Ativo 103 / 124 40% 2 14.04.2027 -
Tamble Monteiro Rio Ave Ativo 112 / 114 40% 3 14.04.2027 -
Jose Fontán Arouca Ativo 121 / 116 40% 2 14.04.2027 -
Adnan Courtois KV Oostende Ativo 124 / 132 40% 2 13.04.2027 -
Kyle Wootton Stockport County Ativo 111 / 123 40% 3 13.04.2027 -
Rafik Guitane Estoril Praia Ativo 138 / 122 40% 1 13.04.2027 -
Ilias Chair Queens Park Rangers Ativo 147 / 141 40% 1 13.04.2027 -
Chuchu Ramírez Nacional Rejeitado 120 / 146 40% 3 12.04.2027 Rejeitar
Patrick Cutrone Monza Ativo 150 / 145 40% 4 12.04.2027 -
Jalen Blesa Rio Ave Ativo 127 / 110 40% 6 11.04.2027 -
Dawda Camara Alverca Ativo 135 / 137 40% 2 10.04.2027 -
Christian Saydee Wigan Athletic Ativo 100 / 104 40% 1 10.04.2027 -
Yassin Fortuné Vizela Ativo 120 / 104 40% 3 09.04.2027 -
Enrico Delprato Parma Ativo 126 / 127 40% 1 09.04.2027 -
Anthony Correia Académico de Viseu Ativo 115 / 117 40% 1 09.04.2027 -
Vitinho Santa Clara Ativo 127 / 106 40% 1 08.04.2027 -
Makan Aïko Tondela Ativo 135 / 114 40% 1 08.04.2027 -
Simone Rabbi Ravenna Ativo 124 / 110 40% 1 07.04.2027 -
Guillem Molina Huesca Ativo 101 / 99 40% 1 07.04.2027 -
Darlin Yongwa Norwich City Ativo 113 / 131 40% 1 07.04.2027 -
Ricard Sánchez Estoril Praia Ativo 119 / 123 40% 5 06.04.2027 -
Dinis Pinto Moreirense Ativo 147 / 142 40% 3 06.04.2027 -
Niall Ennis Blackpool Ativo 121 / 104 40% 1 06.04.2027 -
Guilherme Neiva AVS Ativo 116 / 98 40% 1 04.04.2027 -
Roni AVS Ativo 128 / 127 40% 1 04.04.2027 -
Ross McCrorie Bristol City Ativo 140 / 127 40% 1 04.04.2027 -
Lincoln Alverca Ativo 105 / 125 40% 1 04.04.2027 -
José Paradela Cruz Azul Ativo 156 / 153 40% 1 04.04.2027 -
Valery Académico de Viseu Ativo 106 / 106 40% 7 02.04.2027 -
Maga Leiria Ativo 105 / 126 40% 3 02.04.2027 -
Kyle John Port Vale Ativo 112 / 118 40% 1 01.04.2027 -
Tiago Ribeiro Oliveirense Ativo 108 / 115 40% 1 01.04.2027 -
Juninho Pumas UNAM Ativo 125 / 127 40% 8 31.03.2027 -
Toni Tamarit Alverca Ativo 120 / 136 40% 4 31.03.2027 -
Pedro Pelágio Chaves Ativo 101 / 92 40% 2 31.03.2027 -
Miguel Falé Pacos de Ferreira Ativo 101 / 89 40% 1 31.03.2027 -
Ianis Hagi Alanyaspor Ativo 113 / 142 40% 1 31.03.2027 -
Chiquinho Alverca Ativo 130 / 129 40% 1 31.03.2027 -
Gustavo Torres Leixões Ativo 109 / 104 40% 2 29.03.2027 -
Francisco Moura Lusitânia Lourosa Ativo 135 / 154 40% 4 29.03.2027 -
Kwame Opoku Asante Kotoko Ativo 104 / 85 40% 2 29.03.2027 -
Pedro Amaral Rio Ave Ativo 135 / 116 40% 1 29.03.2027 -
Bandar Yaqoob ES Setif Ativo 128 / 135 40% 1 28.03.2027 -
Luís Esteves Atlas Ativo 146 / 110 40% 4 27.03.2027 -
Thomas Luciano Plymouth Argyle Ativo 89 / 104 40% 1 27.03.2027 -
Hugo Félix Tondela Ativo 122 / 122 40% 1 25.03.2027 -
Leif Davis Ipswich Town Ativo 147 / 148 40% 2 24.03.2027 -
Elijah Adebayo Luton Town Ativo 111 / 129 40% 3 23.03.2027 -
Zé Leite Leixões Ativo 101 / 131 40% 3 23.03.2027 -
Rhian Brewster Oxford United Ativo 127 / 117 40% 2 23.03.2027 -
Miguel Baeza Nacional Ativo 105 / 110 40% 1 23.03.2027 -
Marvin Elimbi Gil Vicente Ativo 130 / 140 40% 1 22.03.2027 -
Pedro Santos Arouca Ativo 109 / 132 40% 1 22.03.2027 -
Aaron Connolly Leyton Orient Ativo 128 / 114 40% 5 21.03.2027 -
Jayden Wareham Barnet Ativo 103 / 93 40% 1 21.03.2027 -
Lee Bonis Chesterfield Ativo 119 / 91 40% 1 21.03.2027 -
Bernardes Benfica Ativo 118 / 105 40% 1 21.03.2027 -
Jorge Aguirre Torreense Ativo 95 / 83 40% 3 20.03.2027 -
Facundo Cáseres Gil Vicente Ativo 129 / 122 40% 3 19.03.2027 -
Afonso Assis Moreirense Ativo 109 / 112 40% 2 19.03.2027 -
Hidemasa Morita Hull City Ativo 156 / 124 40% 3 19.03.2027 -
Brayan Medina Tondela Ativo 103 / 123 40% 2 19.03.2027 -
Mathias Jørgensen Blackburn Rovers Ativo 133 / 103 40% 1 19.03.2027 -
Roméo Beney Famalicao Ativo 132 / 112 40% 2 18.03.2027 -
Dani Raba Standard Liege Ativo 124 / 124 40% 2 18.03.2027 -
Ricardo Schutte Penafiel Ativo 83 / 91 40% 1 17.03.2027 -
Gonçalo Costa Estoril Praia Ativo 98 / 102 40% 1 17.03.2027 -
Eliás Montiel Pachuca Ativo 125 / 129 40% 2 15.03.2027 -
Weverson Gil Vicente Ativo 103 / 122 40% 1 15.03.2027 -
Malik Mothersille Stockport County Ativo 96 / 103 40% 1 14.03.2027 -
Khaly Casa Pia Ativo 113 / 136 40% 1 14.03.2027 -
Figueiredo Alverca Ativo 126 / 123 40% 3 13.03.2027 -
Christian Ebere Cruz Azul Ativo 144 / 138 40% 3 13.03.2027 -
Ronnie Edwards Queens Park Rangers Ativo 144 / 114 40% 1 13.03.2027 -
Tiago Esgaio Arouca Ativo 106 / 136 40% 1 13.03.2027 -
Zé Vitor Nacional Ativo 124 / 111 40% 1 11.03.2027 -
Thorgan Witsel KV Oostende Ativo 136 / 132 40% 1 11.03.2027 -
Lucas Di Yorio Santos Laguna Ativo 108 / 113 40% 1 11.03.2027 -
Akor Adams Venezia Ativo 136 / 155 40% 2 10.03.2027 -
Tiago Leite Felgueiras Ativo 119 / 103 40% 2 10.03.2027 -
Rémy Vita Tondela Ativo 98 / 124 40% 3 08.03.2027 -
Hany Mukhtar Spezia Ativo 158 / 136 40% 5 08.03.2027 -
Juan Brunetta Tigres Ativo 137 / 131 40% 2 08.03.2027 -
Chris Mepham West Bromwich Albion Ativo 117 / 123 40% 2 07.03.2027 -
Dinis Rodrigues Porto Ativo 85 / 87 40% 1 07.03.2027 -
Fortune Bassey Djoliba Ativo 117 / 82 40% 1 07.03.2027 -
Tyreece Campbell Charlton Athletic Ativo 114 / 135 40% 1 07.03.2027 -
Santi García Gil Vicente Ativo 140 / 126 40% 1 07.03.2027 -
Ole Pohlmann Rio Ave Ativo 121 / 115 40% 1 07.03.2027 -
Sam Bell Bristol City Ativo 127 / 122 40% 1 05.03.2027 -
Leonardo Realpe Famalicao Ativo 114 / 110 40% 1 03.03.2027 -
Robert Mizo Ashanti Gold Ativo 107 / 110 40% 1 03.03.2027 -
Lewis McCann Fleetwood Town Ativo 82 / 108 40% 1 02.03.2027 -
Angel Bastunov Vizela Ativo 117 / 110 40% 2 01.03.2027 -
Salvador Blopá Casa Pia Ativo 107 / 118 40% 1 01.03.2027 -
Toni Fruk KV Mechelen Ativo 153 / 125 40% 2 26.02.2027 -
Luke McNally Bristol City Ativo 129 / 124 40% 1 26.02.2027 -
Negueba Mirassol Ativo 134 / 123 40% 3 25.02.2027 -
Zak Swanson Bradford City Ativo 108 / 100 40% 1 25.02.2027 -
Héctor Hernández Gil Vicente Ativo 104 / 131 40% 6 23.02.2027 -
Ross Stewart Southampton Ativo 108 / 142 40% 2 23.02.2027 -
Francisco Petrasso Rio Ave Ativo 138 / 127 40% 1 23.02.2027 -
Moussa Dembélé CR Belouizdad Ativo 112 / 142 40% 2 21.02.2027 -
Danyil Alefirenko Chornomorets Ativo 108 / 112 40% 1 21.02.2027 -
Jack Currie Oxford United Ativo 125 / 124 40% 1 20.02.2027 -
Lukáš Červ Viktoria Plzen Ativo 114 / 140 40% 1 20.02.2027 -
Josh Koroma Leyton Orient Ativo 89 / 121 40% 1 20.02.2027 -
Marezi Portsmouth Ativo 110 / 116 40% 4 16.02.2027 -
Marc Baró Leiria Ativo 121 / 125 40% 1 16.02.2027 -
Nabil Touaizi Alverca Ativo 116 / 111 40% 4 15.02.2027 -
Milan van Ewijk Mansfield Town Rejeitado 122 / 117 40% 4 15.02.2027 Rejeitar
Dylan Collard Lusitânia Lourosa Ativo 122 / 129 40% 2 14.02.2027 -
Franco Romero Toluca Ativo 128 / 118 40% 1 13.02.2027 -
Gonçalo Cardoso Pacos de Ferreira Ativo 116 / 112 40% 1 12.02.2027 -
Brayan Gil Baltika Ativo 141 / 142 40% 1 11.02.2027 -
Henrique Araújo Casa Pia Ativo 107 / 135 40% 2 10.02.2027 -
Pedro Bondo Famalicao Ativo 130 / 104 40% 3 09.02.2027 -
João Teixeira Porto Ativo 116 / 112 40% 1 09.02.2027 -
Brandon Aguilera Rio Ave Ativo 119 / 126 40% 2 07.02.2027 -
Soufiane Messeguem Académico de Viseu Ativo 130 / 110 40% 2 07.02.2027 -
Renato Kayser Vitória Ativo 112 / 118 40% 1 06.02.2027 -
Ante Aralica Lokomotiv Sofia Ativo 124 / 114 40% 1 04.02.2027 -
Ryan Trevitt Cambridge United Ativo 111 / 136 40% 1 04.02.2027 -
Rodrigo Pinheiro Famalicao Ativo 123 / 126 40% 3 02.02.2027 -
Robert-Jan Vanwesemael Sint-Truiden Ativo 103 / 120 40% 1 02.02.2027 -
David Sousa Casa Pia Ativo 135 / 130 40% 2 01.02.2027 -
Mourad Tijuana Ativo 109 / 107 40% 2 31.01.2027 -
Lucas Soares Santa Clara Ativo 103 / 130 40% 1 31.01.2027 -
Ianis Stoica Estrela da Amadora Ativo 122 / 108 40% 3 28.01.2027 -
Guilherme Ankaragucu Ativo 105 / 108 40% 3 28.01.2027 -
Ahmed Kutucu Konyaspor Ativo 104 / 115 40% 1 27.01.2027 -
Mateo Flores Arouca Ativo 129 / 109 40% 1 27.01.2027 -
Mateja Stjepanović Moreirense Ativo 110 / 138 40% 1 27.01.2027 -
Marcos Paulo Juventude Ativo 120 / 126 40% 2 25.01.2027 -
Yousef Salech Cardiff City Ativo 137 / 138 40% 3 25.01.2027 -
Adam Idah Swansea City Ativo 137 / 106 40% 1 24.01.2027 -
Bojan Radulović Huddersfield Town Ativo 129 / 109 40% 1 23.01.2027 -
Gabriel Taliari Juventude Ativo 107 / 109 40% 1 23.01.2027 -
Everton Bala Levski Ativo 111 / 112 40% 1 21.01.2027 -
José Bica Leixões Ativo 84 / 100 40% 1 19.01.2027 -
Christian Kouamé Aris Thessaloniki Ativo 128 / 118 40% 1 19.01.2027 -
Mohammed Bouldini Académico de Viseu Ativo 121 / 129 40% 5 18.01.2027 -
Ondřej Lingr Korona Ativo 117 / 133 40% 1 17.01.2027 -
Aurélien Scheidler Charleroi Ativo 109 / 106 40% 1 16.01.2027 -
Vyacheslav Grulev Nizhniy Novgorod Ativo 105 / 116 40% 1 15.01.2027 -
Boubacar Fofana Sochaux Ativo 123 / 110 40% 1 14.01.2027 -
Andre Green AVS Ativo 116 / 119 40% 3 13.01.2027 -
Juan María Alcedo Torreense Ativo 98 / 133 40% 1 13.01.2027 -
Driton Camaj Novi Pazar Ativo 107 / 117 40% 1 12.01.2027 -
Maxime Dominguez Maritimo Ativo 139 / 136 40% 1 11.01.2027 -
Ronaldo Lumungo Pacos de Ferreira Ativo 105 / 93 40% 1 08.01.2027 -
Pedro Vite Pumas UNAM Ativo 120 / 125 40% 1 08.01.2027 -
Nathan Fogaça Fortaleza Ativo 137 / 124 40% 1 05.01.2027 -
Alisson Safira Juventude Negociando 110 / 132 40% 2 21.12.2026 -
Pablo Ruan Nacional Ativo 89 / 98 40% 2 02.12.2026 -
Cho Gue-Sung FC Midtjylland Ativo 116 / 107 40% 1 02.12.2026 -
Amar Memić Casa Pia Negociando 127 / 128 62% 1 01.12.2026 Aprovar
Andreas Trimmel Red Bull Salzburg Ativo 131 / 131 60% 1 01.12.2026 Aprovar
Lenny Vallier Nacional Ativo 101 / 106 40% 1 30.11.2026 -
Giorgos Liavas Rio Ave Ativo 107 / 129 40% 2 26.11.2026 -
Lorent Tolaj Plymouth Argyle Ativo 131 / 115 40% 1 26.11.2026 -
Yanis da Rocha Portimonense Ativo 104 / 110 40% 1 26.11.2026 -
Yanis Begraoui Estoril Praia Ativo 118 / 130 40% 2 25.11.2026 -
Tyrese Campbell Sheffield United Ativo 130 / 108 40% 1 25.11.2026 -
Álvaro Martínez Moreirense Ativo 130 / 108 40% 1 25.11.2026 -
Luan Patrick Estrela da Amadora Ativo 121 / 116 40% 1 24.11.2026 -
Jair Silva Leiria Ativo 95 / 104 40% 2 23.11.2026 -
Jordan van der Gaag Leiria Ativo 92 / 122 40% 1 23.11.2026 -
Mees Rijks Bristol Rovers Ativo 120 / 98 40% 1 20.11.2026 -
Richard Koné Queens Park Rangers Ativo 129 / 121 40% 1 20.11.2026 -
Pau Víctor AVS Ativo 121 / 143 40% 3 19.11.2026 -
Shaylon Mirassol Ativo 114 / 124 40% 2 18.11.2026 -
Bryan Limbombe Maritimo Ativo 122 / 99 40% 1 16.11.2026 -
Edwar López Deportes Tolima Ativo 120 / 121 40% 2 15.11.2026 -
David Zapata Sheffield Wednesday Ativo 142 / 152 40% 2 14.11.2026 -
Iwan Morgan Grimsby Town Ativo 99 / 104 40% 1 14.11.2026 -
Lucas Duarte Felgueiras Ativo 85 / 115 40% 1 13.11.2026 -
Taichi Fukui Arouca Rejeitado 107 / 122 40% 2 12.11.2026 Mais informações
Rafael Brito Lusitânia Lourosa Ativo 94 / 114 40% 1 12.11.2026 -
Cameron Archer Southampton Ativo 145 / 116 40% 1 11.11.2026 -
Stephen Odey Ittihad Ativo 89 / 100 40% 1 09.11.2026 -
João Carvalho Estoril Praia Ativo 119 / 118 40% 1 09.11.2026 -
Luis Quintero Torreense Ativo 143 / 143 40% 1 08.11.2026 -
Ferreirinha Sport Recife Ativo 145 / 121 40% 1 06.11.2026 -
Alejandro Melo Cibalia Negociando 134 / 128 40% 1 05.11.2026 -
Breel Embolo Atlanta United FC Ativo 138 / 133 40% 2 04.11.2026 -
Alan Lescano Argentinos Juniors Ativo 124 / 131 40% 1 04.11.2026 -
Renato Sanches AVS Ativo 145 / 138 40% 1 04.11.2026 -
Armando Lopes Felgueiras Ativo 116 / 121 40% 2 01.11.2026 -
Bernardo Schappo Estrela da Amadora Ativo 140 / 120 40% 1 01.11.2026 -
Rui Pedro Felgueiras Ativo 121 / 105 40% 2 30.10.2026 -
Tomás Chancalay Minnesota United FC Ativo 112 / 133 40% 1 29.10.2026 -
Toby Collyer West Bromwich Albion Ativo 126 / 137 40% 1 28.10.2026 -
Diogo Spencer Alverca Ativo 100 / 124 40% 1 28.10.2026 -
Rodrigo Bogarín Barracas Central Ativo 126 / 110 40% 3 26.10.2026 -
Afonso Freitas Felgueiras Ativo 88 / 94 40% 1 25.10.2026 -
Luis Vázquez Birmingham Ativo 112 / 122 40% 1 24.10.2026 -
Othmane Maamma Watford Ativo 119 / 143 40% 1 24.10.2026 -
Mika Lusitânia Lourosa Ativo 87 / 117 40% 2 22.10.2026 -
Max Scholze Estrela da Amadora Ativo 109 / 122 40% 1 21.10.2026 -
Felipe Silva Porto Ativo 122 / 94 40% 1 21.10.2026 -
Pelle Mattsson Norwich City Ativo 120 / 134 40% 1 20.10.2026 -
Max Johnston Derby County Ativo 130 / 141 40% 1 20.10.2026 -
MT Santa Clara Ativo 125 / 103 40% 1 20.10.2026 -
Saša Lukić Ipswich Town Ativo 134 / 142 40% 1 20.10.2026 -
Bertrand Traoré Sunderland Ativo 155 / 119 40% 1 20.10.2026 -
Denis Bouanga Los Angeles Football Club Ativo 120 / 151 40% 2 17.10.2026 -
Juan Muñoz Leiria Ativo 119 / 112 40% 2 11.10.2026 -
Pablo Rosario Porto Ativo 135 / 139 40% 1 10.10.2026 -
Ryan Gauld Vancouver Whitecaps Ativo 120 / 142 40% 1 10.10.2026 -
Mario Climent Arouca Ativo 122 / 118 40% 1 09.10.2026 -
Alexey Miranchuk St. Gallen Ativo 128 / 148 40% 1 08.10.2026 -
Bryan Ramírez FC Cincinnati Ativo 116 / 126 40% 1 08.10.2026 -
Marcos López San Martín Ativo 130 / 119 40% 1 08.10.2026 -
Alexander Bah Benfica Ativo 148 / 152 40% 1 08.10.2026 -
Gonçalo Nogueira Vitoria Guimaraes Ativo 99 / 137 40% 1 05.10.2026 -
Adrián Sánchez Belgrano Ativo 127 / 122 40% 1 05.10.2026 -
Sebastián Córdova Pumas UNAM Ativo 146 / 138 40% 1 04.10.2026 -
Adson Vasco da Gama Ativo 133 / 114 40% 1 30.09.2026 -
Leonardo Campana New England Revolution Ativo 131 / 142 40% 1 29.09.2026 -
Antony Alonso Deportivo Riestra Ativo 113 / 111 40% 2 28.09.2026 -
Bénie Traoré New York City Ativo 133 / 139 40% 1 27.09.2026 -
Liel Abada Charlotte Football Club Ativo 145 / 147 40% 1 27.09.2026 -
Dejan Joveljić Seattle Sounders Ativo 139 / 111 40% 2 25.09.2026 -
Alfredo Morelos Atletico Nacional Ativo 136 / 131 40% 2 24.09.2026 -
Kelvin Yeboah Minnesota United FC Ativo 131 / 139 40% 1 20.09.2026 -
Dylan Nandín Arouca Ativo 128 / 126 40% 1 19.09.2026 -
Jorge Meireles AVS Ativo 122 / 113 40% 1 18.09.2026 -
Marcus Ingvartsen San Diego Football Club Ativo 117 / 105 40% 1 16.09.2026 -
Romelu Castagne KV Oostende Ativo 126 / 134 40% 1 12.09.2026 -
João Vasco Lusitânia Lourosa Ativo 105 / 91 40% 1 11.09.2026 -
Manuel Ospina Cortulua Ativo 115 / 113 40% 2 09.09.2026 -
Bruno Larregui Juventud Ativo 129 / 113 40% 1 09.09.2026 -
Alexander Díaz Deportivo Riestra Ativo 125 / 127 40% 1 08.09.2026 -
Lucas Carrizo Plaza Colonia Ativo 107 / 104 40% 1 08.09.2026 -
Zeki Amdouni Burnley Ativo 111 / 133 40% 1 07.09.2026 -
Fally Mayulu Arouca Ativo 95 / 126 40% 1 06.09.2026 -
Ramiro Ruiz Rodríguez Atlético Tucumán Ativo 112 / 125 40% 1 06.09.2026 -
Žan Vipotnik Swansea City Ativo 123 / 141 40% 1 04.09.2026 -
Theo Corbeanu Toronto FC Ativo 109 / 118 40% 1 03.09.2026 -
André Lacximicant Estoril Praia Ativo 121 / 96 40% 1 02.09.2026 -
Aune Heggebø West Bromwich Albion Ativo 123 / 141 40% 1 01.09.2026 -
Jhojan Julio Queretaro Ativo 105 / 136 40% 1 31.08.2026 -
Obinna Nwobodo FC Cincinnati Ativo 130 / 112 40% 1 29.08.2026 -
Alfonso Trezza Arouca Ativo 114 / 132 40% 2 28.08.2026 -
Rafael Navarro St. Louis CITY SC Ativo 119 / 142 40% 2 27.08.2026 -
Tom Cannon Sheffield United Ativo 119 / 121 40% 1 27.08.2026 -
Martín Pino Godoy Cruz Ativo 107 / 125 40% 1 22.08.2026 -
Morgan Guilavogui Real Salt Lake Ativo 114 / 142 40% 1 22.08.2026 -
Adrián Parra Deportes Tolima Ativo 109 / 120 40% 1 17.08.2026 -
Ivan Rangel La Equidad Ativo 123 / 113 40% 1 17.08.2026 -
Ignacio Chicco Aldosivi Ativo 107 / 125 40% 1 08.08.2026 -
Cristopher Varela Deportivo La Guaira Ativo 118 / 116 40% 1 07.08.2026 -
Carlos Moreno Pachuca Ativo 118 / 119 40% 1 07.08.2026 -
Lazar Carević Famalicao Ativo 135 / 123 40% 1 06.08.2026 -
Geovanni Banguera Deportivo Pasto Ativo 105 / 104 40% 1 06.08.2026 -
Fernando Tapia Club America Ativo 106 / 111 40% 1 05.08.2026 -
Jakub Stolarczyk Leicester City Ativo 125 / 131 40% 1 04.08.2026 -
Boris Popović Arouca Ativo 135 / 113 40% 1 03.08.2026 -
João Goulart Casa Pia Ativo 109 / 106 40% 1 03.08.2026 -
Christian Joel Sánchez Leiria Ativo 95 / 97 40% 1 01.08.2026 -